createdAt,value
2019-03-30T00:00:02.223Z,56.09
2019-03-30T00:02:29.646Z,56.10
2019-03-30T00:04:57.148Z,56.01
2019-03-30T00:07:24.568Z,56.21
2019-03-30T00:09:52.016Z,56.53
2019-03-30T00:12:22.883Z,56.67
2019-03-30T00:14:47.026Z,57.11
2019-03-30T00:17:14.425Z,57.23
2019-03-30T00:19:41.868Z,57.17
2019-03-30T00:22:09.345Z,57.14
2019-03-30T00:24:36.823Z,57.42
2019-03-30T00:27:04.241Z,57.94
2019-03-30T00:29:31.652Z,58.59
2019-03-30T00:31:59.073Z,58.64
2019-03-30T00:34:26.472Z,58.80
2019-03-30T00:36:53.942Z,58.89
2019-03-30T00:39:21.354Z,58.83
2019-03-30T00:41:48.811Z,58.59
2019-03-30T00:44:16.212Z,57.14
2019-03-30T00:46:43.636Z,57.63
2019-03-30T00:49:11.102Z,58.33
2019-03-30T00:51:38.493Z,57.83
2019-03-30T00:54:05.928Z,58.04
2019-03-30T00:56:33.374Z,58.12
2019-03-30T00:59:00.931Z,57.45
2019-03-30T01:01:28.340Z,57.93
2019-03-30T01:03:55.798Z,58.36
2019-03-30T01:06:23.221Z,58.40
2019-03-30T01:08:50.625Z,58.65
2019-03-30T01:11:18.059Z,59.18
2019-03-30T01:13:45.478Z,59.65
2019-03-30T01:16:12.895Z,59.79
2019-03-30T01:18:40.295Z,59.87
2019-03-30T01:21:07.742Z,59.72
2019-03-30T01:23:35.153Z,59.30
2019-03-30T01:26:02.674Z,59.07
2019-03-30T01:28:30.975Z,59.13
2019-03-30T01:30:58.385Z,59.41
2019-03-30T01:33:25.796Z,59.76
2019-03-30T01:35:53.253Z,59.31
2019-03-30T01:38:20.663Z,59.02
2019-03-30T01:40:48.065Z,59.25
2019-03-30T01:43:15.460Z,59.89
2019-03-30T01:45:42.866Z,60.03
2019-03-30T01:48:10.278Z,60.18
2019-03-30T01:50:37.737Z,60.88
2019-03-30T01:53:05.130Z,60.46
2019-03-30T01:55:32.519Z,60.13
2019-03-30T01:57:59.927Z,60.17
2019-03-30T02:00:27.345Z,59.83
2019-03-30T02:02:54.749Z,59.56
2019-03-30T02:05:22.156Z,59.46
2019-03-30T02:07:49.547Z,59.88
2019-03-30T02:10:16.961Z,60.55
2019-03-30T02:12:44.368Z,60.76
2019-03-30T02:15:11.770Z,60.97
2019-03-30T02:17:39.182Z,60.02
2019-03-30T02:20:07.201Z,60.34
2019-03-30T02:22:34.608Z,60.80
2019-03-30T02:25:02.016Z,60.91
2019-03-30T02:27:29.457Z,60.75
2019-03-30T02:29:56.854Z,60.79
2019-03-30T02:32:24.262Z,61.08
2019-03-30T02:34:52.656Z,60.94
2019-03-30T02:37:20.065Z,61.72
2019-03-30T02:39:47.474Z,61.57
2019-03-30T02:42:14.877Z,61.72
2019-03-30T02:44:42.286Z,61.40
2019-03-30T02:47:09.682Z,60.86
2019-03-30T02:49:37.105Z,61.04
2019-03-30T02:52:04.505Z,59.98
2019-03-30T02:54:31.907Z,59.96
2019-03-30T02:56:59.302Z,60.28
2019-03-30T02:59:26.692Z,60.23
2019-03-30T03:01:54.253Z,59.82
2019-03-30T03:04:21.511Z,59.42
2019-03-30T03:06:48.920Z,59.51
2019-03-30T03:09:16.316Z,59.39
2019-03-30T03:11:43.724Z,59.16
2019-03-30T03:14:11.123Z,59.27
2019-03-30T03:16:38.536Z,59.24
2019-03-30T03:19:05.930Z,59.48
2019-03-30T03:21:33.361Z,59.41
2019-03-30T03:24:00.798Z,59.38
2019-03-30T03:26:28.206Z,59.91
2019-03-30T03:28:55.622Z,59.88
2019-03-30T03:31:23.037Z,59.85
2019-03-30T03:33:50.472Z,60.12
2019-03-30T03:36:17.864Z,60.58
2019-03-30T03:38:45.279Z,61.33
2019-03-30T03:41:12.677Z,61.80
2019-03-30T03:43:40.076Z,62.01
2019-03-30T03:46:07.493Z,61.95
2019-03-30T03:48:34.917Z,62.00
2019-03-30T03:51:03.102Z,61.97
2019-03-30T03:53:30.507Z,62.34
2019-03-30T03:55:57.899Z,62.41
2019-03-30T03:58:25.352Z,62.43
2019-03-30T04:00:52.765Z,62.74
2019-03-30T04:03:20.161Z,63.10
2019-03-30T04:05:47.594Z,62.94
2019-03-30T04:08:14.988Z,62.67
2019-03-30T04:10:42.444Z,62.77
2019-03-30T04:13:09.884Z,63.00
2019-03-30T04:15:37.267Z,63.66
2019-03-30T04:18:04.693Z,63.95
2019-03-30T04:20:32.079Z,64.37
2019-03-30T04:22:59.494Z,64.46
2019-03-30T04:25:26.954Z,64.61
2019-03-30T04:27:54.364Z,64.72
2019-03-30T04:30:22.482Z,64.75
2019-03-30T04:32:49.948Z,64.89
2019-03-30T04:35:17.366Z,64.81
2019-03-30T04:37:44.758Z,64.86
2019-03-30T04:40:12.179Z,65.13
2019-03-30T04:42:39.579Z,65.11
2019-03-30T04:45:06.982Z,65.20
2019-03-30T04:47:34.384Z,65.09
2019-03-30T04:50:01.793Z,65.00
2019-03-30T04:52:29.187Z,64.90
2019-03-30T04:54:56.607Z,64.62
2019-03-30T04:57:24.078Z,64.57
2019-03-30T04:59:51.472Z,64.70
2019-03-30T05:02:18.875Z,64.75
2019-03-30T05:04:46.275Z,64.77
2019-03-30T05:07:13.684Z,64.88
2019-03-30T05:09:41.084Z,64.94
2019-03-30T05:12:08.500Z,64.56
2019-03-30T05:14:35.891Z,64.45
2019-03-30T05:17:03.304Z,63.91
2019-03-30T05:19:30.711Z,63.08
2019-03-30T05:22:11.581Z,63.31
2019-03-30T05:24:25.540Z,63.35
2019-03-30T05:26:52.948Z,63.83
2019-03-30T05:29:21.008Z,63.57
2019-03-30T05:31:48.473Z,63.31
2019-03-30T05:34:15.820Z,63.44
2019-03-30T05:36:43.225Z,63.19
2019-03-30T05:39:10.632Z,62.60
2019-03-30T05:41:38.031Z,62.90
2019-03-30T05:44:05.453Z,62.92
2019-03-30T05:46:32.846Z,62.41
2019-03-30T05:49:00.274Z,62.15
2019-03-30T05:51:27.671Z,62.04
2019-03-30T05:53:55.075Z,62.29
2019-03-30T05:56:22.467Z,61.94
2019-03-30T05:58:49.876Z,62.12
2019-03-30T06:01:17.273Z,62.59
2019-03-30T06:03:44.674Z,62.70
2019-03-30T06:06:12.102Z,62.37
2019-03-30T06:08:39.502Z,62.33
2019-03-30T06:11:06.903Z,62.87
2019-03-30T06:13:34.311Z,62.92
2019-03-30T06:16:01.749Z,63.42
2019-03-30T06:18:29.156Z,63.44
2019-03-30T06:20:56.599Z,63.43
2019-03-30T06:23:24.013Z,63.33
2019-03-30T06:25:51.408Z,63.15
2019-03-30T06:28:18.819Z,62.73
2019-03-30T06:30:46.232Z,62.05
2019-03-30T06:33:13.659Z,61.82
2019-03-30T06:35:41.190Z,61.87
2019-03-30T06:38:08.643Z,61.60
2019-03-30T06:40:36.348Z,61.24
2019-03-30T06:43:03.770Z,60.98
2019-03-30T06:45:37.005Z,60.76
2019-03-30T06:48:04.419Z,60.70
2019-03-30T06:50:31.832Z,60.14
2019-03-30T06:52:59.303Z,59.37
2019-03-30T06:55:26.691Z,58.62
2019-03-30T06:57:54.087Z,58.51
2019-03-30T07:00:27.230Z,58.43
2019-03-30T07:02:54.631Z,58.22
2019-03-30T07:05:22.054Z,57.79
2019-03-30T07:07:49.460Z,57.83
2019-03-30T07:10:16.867Z,57.94
2019-03-30T07:12:44.298Z,57.47
2019-03-30T07:15:11.701Z,57.48
2019-03-30T07:17:39.914Z,57.28
2019-03-30T07:20:07.394Z,57.03
2019-03-30T07:22:34.805Z,56.67
2019-03-30T07:25:01.783Z,56.67
2019-03-30T07:27:28.752Z,56.58
2019-03-30T07:29:55.707Z,56.16
2019-03-30T07:32:22.684Z,55.64
2019-03-30T07:34:49.688Z,55.14
2019-03-30T07:37:16.651Z,54.53
2019-03-30T07:39:43.631Z,53.69
2019-03-30T07:42:10.574Z,52.80
2019-03-30T07:44:37.996Z,52.34
2019-03-30T07:47:05.478Z,51.63
2019-03-30T07:49:32.963Z,50.33
2019-03-30T07:52:00.417Z,50.84
2019-03-30T07:54:27.816Z,53.07
2019-03-30T07:57:05.323Z,51.24
2019-03-30T07:59:22.685Z,51.30
2019-03-30T08:01:54.914Z,50.42
2019-03-30T08:04:22.330Z,49.96
2019-03-30T08:06:49.739Z,50.13
2019-03-30T08:09:17.151Z,49.19
2019-03-30T08:11:44.593Z,48.86
2019-03-30T08:14:11.997Z,48.43
2019-03-30T08:16:39.413Z,47.98
2019-03-30T08:19:06.816Z,47.49
2019-03-30T08:21:34.243Z,47.82
2019-03-30T08:24:01.672Z,48.31
2019-03-30T08:26:29.079Z,48.20
2019-03-30T08:28:56.535Z,48.20
2019-03-30T08:31:23.959Z,47.80
2019-03-30T08:33:51.373Z,47.61
2019-03-30T08:36:18.932Z,47.68
2019-03-30T08:38:46.334Z,47.58
2019-03-30T08:41:14.971Z,46.81
2019-03-30T08:43:42.383Z,46.14
2019-03-30T08:46:09.809Z,45.63
2019-03-30T08:48:37.195Z,45.62
2019-03-30T08:51:04.707Z,45.84
2019-03-30T08:53:32.115Z,44.98
2019-03-30T08:55:59.610Z,44.71
2019-03-30T08:58:27.011Z,44.84
2019-03-30T09:00:54.429Z,45.08
2019-03-30T09:03:21.839Z,44.95
2019-03-30T09:05:50.063Z,45.36
2019-03-30T09:08:17.496Z,45.31
2019-03-30T09:10:44.932Z,45.04
2019-03-30T09:13:12.343Z,44.36
2019-03-30T09:15:39.807Z,43.69
2019-03-30T09:18:07.223Z,43.17
2019-03-30T09:20:34.627Z,42.29
2019-03-30T09:23:02.040Z,41.67
2019-03-30T09:25:29.480Z,41.72
2019-03-30T09:27:56.897Z,41.21
2019-03-30T09:30:24.304Z,40.67
2019-03-30T09:32:51.731Z,40.17
2019-03-30T09:35:19.158Z,40.34
2019-03-30T09:37:46.566Z,40.33
2019-03-30T09:40:13.974Z,39.93
2019-03-30T09:42:41.388Z,39.69
2019-03-30T09:45:08.794Z,39.69
2019-03-30T09:47:36.220Z,39.62
2019-03-30T09:50:04.296Z,38.81
2019-03-30T09:52:31.844Z,39.05
2019-03-30T09:54:59.427Z,38.65
2019-03-30T09:57:26.406Z,38.58
2019-03-30T09:59:53.364Z,38.55
2019-03-30T10:02:20.314Z,38.75
2019-03-30T10:04:47.741Z,38.63
2019-03-30T10:07:15.147Z,38.29
2019-03-30T10:09:42.559Z,37.49
2019-03-30T10:12:09.987Z,37.03
2019-03-30T10:14:37.417Z,36.42
2019-03-30T10:17:04.827Z,36.05
2019-03-30T10:19:32.405Z,35.76
2019-03-30T10:21:59.808Z,35.49
2019-03-30T10:24:37.442Z,35.08
2019-03-30T10:26:54.672Z,34.59
2019-03-30T10:29:22.100Z,34.23
2019-03-30T10:31:49.490Z,33.91
2019-03-30T10:34:16.915Z,33.61
2019-03-30T10:36:44.325Z,33.36
2019-03-30T10:39:11.748Z,32.99
2019-03-30T10:41:39.183Z,32.50
2019-03-30T10:44:06.599Z,32.03
2019-03-30T10:46:34.039Z,31.58
2019-03-30T10:49:01.462Z,31.15
2019-03-30T10:51:28.921Z,30.74
2019-03-30T10:53:56.330Z,30.47
2019-03-30T10:56:23.735Z,29.92
2019-03-30T10:58:51.202Z,29.80
2019-03-30T11:01:18.610Z,29.49
2019-03-30T11:03:46.011Z,29.27
2019-03-30T11:06:13.623Z,29.03
2019-03-30T11:08:41.033Z,28.80
2019-03-30T11:11:08.490Z,28.52
2019-03-30T11:13:36.138Z,28.51
2019-03-30T11:16:03.567Z,28.38
2019-03-30T11:18:31.087Z,28.14
2019-03-30T11:20:58.502Z,27.84
2019-03-30T11:23:25.943Z,27.86
2019-03-30T11:25:53.351Z,27.54
2019-03-30T11:28:20.802Z,27.30
2019-03-30T11:30:48.213Z,27.00
2019-03-30T11:33:15.690Z,26.76
2019-03-30T11:35:43.209Z,26.41
2019-03-30T11:38:10.607Z,26.25
2019-03-30T11:40:38.042Z,25.91
2019-03-30T11:43:05.436Z,25.47
2019-03-30T11:45:32.861Z,24.83
2019-03-30T11:48:00.252Z,24.59
2019-03-30T11:50:27.685Z,24.19
2019-03-30T11:52:55.192Z,23.93
2019-03-30T11:55:22.685Z,23.54
2019-03-30T11:57:50.087Z,23.28
2019-03-30T12:00:17.500Z,23.20
2019-03-30T12:02:44.916Z,22.95
2019-03-30T12:05:12.401Z,22.54
2019-03-30T12:07:39.976Z,22.32
2019-03-30T12:10:07.379Z,22.09
2019-03-30T12:12:37.345Z,21.99
2019-03-30T12:15:02.258Z,21.92
2019-03-30T12:17:29.683Z,21.74
2019-03-30T12:19:57.205Z,21.39
2019-03-30T12:22:24.600Z,21.20
2019-03-30T12:24:51.551Z,20.80
2019-03-30T12:27:18.516Z,20.70
2019-03-30T12:29:45.482Z,20.20
2019-03-30T12:32:12.521Z,19.95
2019-03-30T12:34:39.464Z,19.67
2019-03-30T12:37:07.110Z,19.56
2019-03-30T12:39:34.056Z,19.47
2019-03-30T12:42:01.563Z,19.84
2019-03-30T12:44:28.884Z,19.53
2019-03-30T12:46:56.335Z,19.37
2019-03-30T12:49:23.755Z,18.99
2019-03-30T12:51:52.014Z,18.44
2019-03-30T12:54:19.567Z,18.34
2019-03-30T12:56:46.971Z,18.06
2019-03-30T12:59:14.375Z,17.82
2019-03-30T13:01:41.787Z,17.68
2019-03-30T13:04:09.258Z,17.55
2019-03-30T13:06:36.672Z,17.44
2019-03-30T13:09:04.082Z,17.26
2019-03-30T13:11:31.493Z,17.13
2019-03-30T13:13:58.906Z,17.08
2019-03-30T13:16:26.518Z,17.03
2019-03-30T13:18:53.717Z,17.10
2019-03-30T13:21:21.173Z,17.07
2019-03-30T13:23:48.612Z,17.10
2019-03-30T13:26:16.079Z,17.20
2019-03-30T13:28:43.498Z,17.23
2019-03-30T13:31:10.921Z,17.12
2019-03-30T13:33:38.343Z,17.10
2019-03-30T13:36:05.806Z,17.13
2019-03-30T13:38:33.205Z,17.07
2019-03-30T13:41:00.630Z,17.05
2019-03-30T13:43:28.063Z,17.02
2019-03-30T13:45:55.622Z,17.10
2019-03-30T13:48:23.005Z,17.10
2019-03-30T13:50:50.474Z,17.11
2019-03-30T13:53:17.873Z,17.07
2019-03-30T13:55:45.319Z,17.13
2019-03-30T13:58:12.732Z,17.16
2019-03-30T14:00:40.147Z,17.09
2019-03-30T14:03:07.559Z,17.01
2019-03-30T14:05:34.982Z,17.08
2019-03-30T14:08:02.382Z,17.31
2019-03-30T14:10:29.807Z,17.60
2019-03-30T14:12:57.224Z,17.68
2019-03-30T14:15:24.634Z,17.64
2019-03-30T14:17:52.047Z,17.91
2019-03-30T14:20:19.463Z,18.16
2019-03-30T14:22:46.878Z,18.73
2019-03-30T14:25:14.310Z,18.94
2019-03-30T14:27:41.781Z,19.20
2019-03-30T14:30:09.254Z,18.96
2019-03-30T14:32:36.705Z,18.89
2019-03-30T14:35:04.116Z,18.76
2019-03-30T14:37:31.613Z,18.85
2019-03-30T14:39:59.003Z,19.12
2019-03-30T14:42:26.438Z,19.27
2019-03-30T14:44:53.877Z,19.37
2019-03-30T14:47:21.395Z,19.35
2019-03-30T14:49:48.806Z,19.17
2019-03-30T14:52:16.210Z,19.16
2019-03-30T14:54:52.785Z,19.22
2019-03-30T14:57:11.468Z,19.29
2019-03-30T14:59:38.950Z,19.16
2019-03-30T15:02:06.380Z,19.17
2019-03-30T15:04:33.938Z,19.17
2019-03-30T15:07:01.416Z,19.08
2019-03-30T15:09:28.803Z,18.97
2019-03-30T15:11:56.221Z,18.74
2019-03-30T15:14:23.954Z,18.77
2019-03-30T15:16:51.427Z,18.61
2019-03-30T15:19:19.011Z,18.71
2019-03-30T15:21:46.412Z,18.66
2019-03-30T15:24:13.862Z,18.55
2019-03-30T15:26:41.291Z,18.73
2019-03-30T15:29:08.763Z,18.88
2019-03-30T15:31:36.590Z,18.96
2019-03-30T15:34:04.181Z,18.75
2019-03-30T15:36:31.586Z,18.67
2019-03-30T15:38:58.991Z,19.01
2019-03-30T15:41:26.433Z,19.00
2019-03-30T15:43:53.874Z,19.11
2019-03-30T15:46:21.665Z,19.32
2019-03-30T15:48:49.154Z,19.27
2019-03-30T15:51:16.068Z,19.39
2019-03-30T15:53:43.011Z,19.62
2019-03-30T15:56:09.957Z,20.03
2019-03-30T15:58:36.890Z,20.32
2019-03-30T16:01:03.834Z,20.34
2019-03-30T16:03:31.890Z,20.79
2019-03-30T16:05:59.855Z,21.21
2019-03-30T16:08:27.354Z,21.53
2019-03-30T16:10:54.763Z,21.70
2019-03-30T16:13:22.178Z,21.91
2019-03-30T16:15:49.636Z,21.84
2019-03-30T16:18:17.134Z,21.90
2019-03-30T16:20:44.544Z,22.14
2019-03-30T16:23:12.007Z,22.45
2019-03-30T16:25:39.019Z,22.85
2019-03-30T16:28:06.511Z,23.13
2019-03-30T16:30:33.948Z,23.51
2019-03-30T16:33:01.359Z,23.80
2019-03-30T16:35:28.755Z,23.83
2019-03-30T16:37:56.212Z,23.72
2019-03-30T16:40:23.670Z,23.66
2019-03-30T16:42:51.075Z,23.73
2019-03-30T16:45:18.578Z,23.91
2019-03-30T16:47:46.159Z,24.34
2019-03-30T16:50:13.569Z,24.98
2019-03-30T16:52:41.445Z,25.18
2019-03-30T16:55:08.491Z,25.15
2019-03-30T16:57:43.154Z,25.35
2019-03-30T17:00:03.328Z,25.73
2019-03-30T17:02:30.735Z,25.85
2019-03-30T17:04:58.147Z,26.03
2019-03-30T17:07:25.579Z,25.99
2019-03-30T17:09:53.006Z,26.20
2019-03-30T17:12:20.428Z,26.26
2019-03-30T17:14:47.835Z,26.63
2019-03-30T17:17:15.246Z,27.10
2019-03-30T17:19:42.750Z,27.83
2019-03-30T17:22:10.152Z,28.47
2019-03-30T17:24:37.590Z,28.56
2019-03-30T17:27:05.449Z,29.12
2019-03-30T17:29:32.859Z,29.31
2019-03-30T17:32:00.370Z,30.01
2019-03-30T17:34:27.786Z,30.27
2019-03-30T17:36:55.879Z,30.58
2019-03-30T17:39:23.280Z,30.74
2019-03-30T17:41:50.682Z,31.01
2019-03-30T17:44:18.391Z,31.53
2019-03-30T17:46:45.839Z,31.77
2019-03-30T17:49:13.290Z,32.40
2019-03-30T17:51:40.698Z,32.68
2019-03-30T17:54:08.163Z,32.86
2019-03-30T17:56:35.598Z,32.81
2019-03-30T17:59:03.024Z,32.83
2019-03-30T18:01:30.427Z,32.94
2019-03-30T18:03:57.940Z,32.95
2019-03-30T18:06:25.407Z,33.21
2019-03-30T18:08:52.837Z,33.64
2019-03-30T18:11:20.269Z,33.81
2019-03-30T18:13:47.674Z,34.14
2019-03-30T18:16:15.070Z,34.49
2019-03-30T18:18:42.499Z,34.89
2019-03-30T18:21:09.983Z,35.42
2019-03-30T18:23:37.397Z,35.89
2019-03-30T18:26:04.835Z,36.26
2019-03-30T18:28:32.277Z,36.90
2019-03-30T18:30:59.750Z,37.50
2019-03-30T18:33:27.157Z,37.90
2019-03-30T18:35:55.764Z,38.17
2019-03-30T18:38:23.168Z,38.39
2019-03-30T18:40:50.729Z,38.33
2019-03-30T18:43:18.148Z,38.19
2019-03-30T18:45:45.568Z,38.13
2019-03-30T18:48:14.690Z,38.17
2019-03-30T18:50:42.134Z,37.96
2019-03-30T18:53:09.583Z,38.18
2019-03-30T18:55:37.008Z,38.38
2019-03-30T18:58:04.430Z,38.52
2019-03-30T19:00:32.227Z,38.29
2019-03-30T19:02:59.627Z,38.50
2019-03-30T19:05:27.035Z,38.38
2019-03-30T19:07:54.457Z,38.43
2019-03-30T19:10:22.020Z,38.55
2019-03-30T19:12:49.418Z,38.66
2019-03-30T19:15:16.971Z,38.92
2019-03-30T19:17:44.432Z,39.85
2019-03-30T19:20:11.907Z,40.53
2019-03-30T19:22:39.357Z,41.06
2019-03-30T19:25:06.774Z,41.10
2019-03-30T19:27:34.189Z,40.87
2019-03-30T19:30:01.609Z,40.73
2019-03-30T19:32:29.072Z,40.87
2019-03-30T19:34:57.141Z,41.43
2019-03-30T19:37:24.540Z,41.66
2019-03-30T19:39:51.959Z,41.66
2019-03-30T19:42:19.396Z,41.95
2019-03-30T19:44:47.088Z,41.90
2019-03-30T19:47:14.569Z,41.70
2019-03-30T19:49:42.014Z,41.29
2019-03-30T19:52:09.482Z,41.07
2019-03-30T19:54:36.959Z,40.85
2019-03-30T19:57:04.378Z,40.69
2019-03-30T19:59:32.061Z,40.50
2019-03-30T20:01:59.469Z,40.41
2019-03-30T20:04:26.906Z,40.37
2019-03-30T20:06:54.303Z,40.60
2019-03-30T20:09:21.715Z,40.90
2019-03-30T20:11:49.146Z,40.36
2019-03-30T20:14:16.598Z,40.53
2019-03-30T20:16:44.027Z,41.05
2019-03-30T20:19:12.872Z,41.10
2019-03-30T20:21:38.844Z,41.21
2019-03-30T20:24:06.311Z,40.60
2019-03-30T20:26:33.721Z,39.44
2019-03-30T20:29:01.131Z,39.53
2019-03-30T20:31:28.614Z,39.47
2019-03-30T20:33:56.028Z,38.86
2019-03-30T20:36:23.440Z,38.53
2019-03-30T20:38:50.841Z,37.99
2019-03-30T20:41:18.237Z,38.94
2019-03-30T20:43:45.682Z,39.27
2019-03-30T20:46:13.128Z,38.64
2019-03-30T20:48:40.549Z,38.79
2019-03-30T20:51:07.991Z,39.04
2019-03-30T20:53:35.403Z,39.37
2019-03-30T20:56:02.831Z,39.44
2019-03-30T20:58:30.406Z,38.46
2019-03-30T21:00:57.851Z,38.68
2019-03-30T21:03:25.259Z,38.71
2019-03-30T21:05:52.662Z,38.80
2019-03-30T21:08:20.183Z,39.25
2019-03-30T21:10:47.589Z,39.71
2019-03-30T21:13:15.008Z,40.09
2019-03-30T21:15:42.447Z,40.45
2019-03-30T21:18:09.866Z,40.62
2019-03-30T21:20:37.290Z,40.67
2019-03-30T21:23:04.720Z,40.72
2019-03-30T21:25:32.215Z,40.96
2019-03-30T21:27:59.777Z,41.23
2019-03-30T21:30:27.247Z,42.03
2019-03-30T21:32:54.641Z,42.50
2019-03-30T21:35:22.097Z,42.25
2019-03-30T21:37:49.689Z,42.18
2019-03-30T21:40:17.104Z,42.40
2019-03-30T21:42:44.527Z,43.25
2019-03-30T21:45:11.931Z,44.35
2019-03-30T21:47:39.326Z,44.99
2019-03-30T21:50:06.740Z,45.29
2019-03-30T21:52:34.211Z,45.15
2019-03-30T21:55:01.614Z,44.87
2019-03-30T21:57:29.015Z,44.66
2019-03-30T22:00:09.100Z,44.04
2019-03-30T22:02:23.882Z,43.80
2019-03-30T22:04:51.287Z,43.63
2019-03-30T22:07:18.692Z,43.59
2019-03-30T22:09:46.101Z,43.81
2019-03-30T22:12:13.739Z,44.01
2019-03-30T22:14:41.178Z,44.80
2019-03-30T22:17:08.595Z,45.15
2019-03-30T22:19:36.036Z,45.40
2019-03-30T22:22:03.526Z,45.21
2019-03-30T22:24:31.130Z,44.84
2019-03-30T22:26:58.559Z,44.52
2019-03-30T22:29:25.987Z,44.04
2019-03-30T22:31:53.468Z,44.24
2019-03-30T22:34:20.896Z,44.86
2019-03-30T22:36:48.313Z,45.36
2019-03-30T22:39:15.747Z,45.68
2019-03-30T22:41:43.259Z,45.74
2019-03-30T22:44:10.662Z,45.90
2019-03-30T22:46:38.095Z,46.08
2019-03-30T22:49:06.101Z,46.28
2019-03-30T22:51:33.495Z,46.42
2019-03-30T22:54:01.081Z,46.74
2019-03-30T22:56:34.501Z,47.03
2019-03-30T22:59:01.920Z,46.99
2019-03-30T23:01:29.426Z,46.93
2019-03-30T23:03:56.769Z,46.82
2019-03-30T23:06:24.446Z,46.43
2019-03-30T23:08:51.867Z,46.40
2019-03-30T23:11:19.325Z,46.34
2019-03-30T23:13:46.811Z,46.37
2019-03-30T23:16:14.337Z,46.74
2019-03-30T23:18:45.113Z,47.12
2019-03-30T23:21:09.219Z,47.70
2019-03-30T23:23:36.626Z,47.99
2019-03-30T23:26:04.060Z,47.96
2019-03-30T23:28:31.461Z,48.07
2019-03-30T23:30:58.892Z,48.28
2019-03-30T23:33:26.308Z,48.40
2019-03-30T23:35:53.718Z,48.36
2019-03-30T23:38:21.212Z,47.94
2019-03-30T23:40:48.629Z,48.36
2019-03-30T23:43:16.182Z,49.00
2019-03-30T23:45:43.754Z,49.87
2019-03-30T23:48:11.186Z,50.04
2019-03-30T23:50:38.755Z,49.14
2019-03-30T23:53:07.604Z,48.43
2019-03-30T23:55:38.122Z,48.12
2019-03-30T23:58:05.582Z,48.76
